Time;durP1;ratioP1;P1;durP2;ratioP2;P2;SDS_P1;SDS_P2;PMS_P1;PMS_P2;Temp;Humidity;BMP_temperature;BMP_pressure;BME280_temperature;BME280_humidity;BME280_pressure;Samples;Min_cycle;Max_cycle;Signal;HPM_P1;HPM_P2
2023/05/24 00:00:23;;;;;;;8.80;3.45;;;;;;;;;;7376807;19;20011;-72
2023/05/24 00:02:48;;;;;;;13.85;2.85;;;;;;;;;;7384097;19;20003;-72
2023/05/24 00:05:15;;;;;;;9.48;2.95;;;;;;;;;;7380804;19;20035;-72
2023/05/24 00:07:41;;;;;;;13.38;3.17;;;;;;;;;;7373329;19;20010;-72
2023/05/24 00:10:07;;;;;;;9.13;2.90;;;;;;;;;;7398205;19;20007;-72
2023/05/24 00:12:32;;;;;;;9.82;3.25;;;;;;;;;;7375942;19;20074;-72
2023/05/24 00:14:57;;;;;;;7.90;2.72;;;;;;;;;;7374328;19;20014;-72
2023/05/24 00:17:23;;;;;;;10.93;2.95;;;;;;;;;;7374739;19;20006;-72
2023/05/24 00:19:49;;;;;;;8.63;2.75;;;;;;;;;;7376086;19;20106;-72
2023/05/24 00:22:14;;;;;;;8.85;3.22;;;;;;;;;;7375420;19;20343;-72
2023/05/24 00:24:39;;;;;;;11.23;3.00;;;;;;;;;;7396143;19;20509;-72
2023/05/24 00:27:06;;;;;;;7.93;3.08;;;;;;;;;;7372239;19;20578;-72
2023/05/24 00:29:31;;;;;;;17.10;3.40;;;;;;;;;;7373339;19;20031;-72
2023/05/24 00:31:56;;;;;;;9.25;2.60;;;;;;;;;;7373806;19;20007;-73
2023/05/24 00:34:22;;;;;;;6.85;3.03;;;;;;;;;;7373554;19;20002;-72
2023/05/24 00:36:47;;;;;;;11.02;3.13;;;;;;;;;;7394898;19;20009;-72
2023/05/24 00:39:12;;;;;;;10.07;2.90;;;;;;;;;;7372084;19;20014;-73
2023/05/24 00:41:38;;;;;;;11.00;2.72;;;;;;;;;;7373662;19;20007;-72
2023/05/24 00:44:03;;;;;;;7.53;3.00;;;;;;;;;;7373816;19;20070;-72
2023/05/24 00:46:31;;;;;;;10.18;3.50;;;;;;;;;;7373011;19;20007;-72
2023/05/24 00:48:57;;;;;;;10.57;2.70;;;;;;;;;;7394574;19;20031;-72
2023/05/24 00:51:25;;;;;;;12.25;3.22;;;;;;;;;;7373897;19;20139;-72
2023/05/24 00:53:50;;;;;;;10.25;3.17;;;;;;;;;;7370951;19;20018;-72
2023/05/24 00:56:16;;;;;;;11.90;3.17;;;;;;;;;;7371493;19;20329;-72
2023/05/24 00:58:42;;;;;;;8.57;2.80;;;;;;;;;;7372416;19;20030;-72
2023/05/24 01:01:07;;;;;;;11.85;3.10;;;;;;;;;;7395696;19;20023;-72
2023/05/24 01:03:34;;;;;;;16.40;3.17;;;;;;;;;;7373277;19;20018;-72
2023/05/24 01:06:02;;;;;;;11.48;3.20;;;;;;;;;;7371705;19;20002;-72
2023/05/24 01:08:41;;;;;;;8.45;2.90;;;;;;;;;;7375945;19;20017;-72
2023/05/24 01:11:28;;;;;;;7.20;2.70;;;;;;;;;;7375669;19;20076;-72
2023/05/24 01:14:25;;;;;;;12.25;2.85;;;;;;;;;;7373865;19;20010;-72
2023/05/24 01:17:02;;;;;;;9.63;3.33;;;;;;;;;;7372211;19;20010;-72
2023/05/24 01:19:36;;;;;;;11.68;3.00;;;;;;;;;;7372937;19;20038;-71
2023/05/24 01:22:10;;;;;;;10.05;2.92;;;;;;;;;;7393210;19;20111;-71
2023/05/24 01:25:02;;;;;;;6.35;3.15;;;;;;;;;;7372720;19;20614;-72
2023/05/24 01:27:29;;;;;;;9.10;2.80;;;;;;;;;;7372664;19;20003;-72
2023/05/24 01:29:55;;;;;;;10.48;3.05;;;;;;;;;;7377971;19;20026;-72
2023/05/24 01:32:21;;;;;;;9.73;3.08;;;;;;;;;;7372299;19;20010;-72
2023/05/24 01:34:46;;;;;;;8.82;3.05;;;;;;;;;;7371215;19;20036;-72
2023/05/24 01:37:12;;;;;;;10.10;3.15;;;;;;;;;;7376509;19;20033;-71
2023/05/24 01:39:37;;;;;;;10.45;3.25;;;;;;;;;;7391395;19;20002;-72
2023/05/24 01:42:17;;;;;;;10.55;3.10;;;;;;;;;;7372545;19;20533;-72
2023/05/24 01:44:45;;;;;;;9.75;3.55;;;;;;;;;;7371601;19;19998;-72
2023/05/24 01:47:33;;;;;;;10.65;3.17;;;;;;;;;;7371442;19;20017;-72
2023/05/24 01:50:05;;;;;;;15.68;3.63;;;;;;;;;;7372098;19;20002;-72
2023/05/24 01:52:33;;;;;;;11.20;3.50;;;;;;;;;;7372401;19;20007;-72
2023/05/24 01:55:01;;;;;;;11.55;3.38;;;;;;;;;;7392214;19;20003;-73
2023/05/24 01:57:27;;;;;;;10.65;3.33;;;;;;;;;;7369055;19;20027;-72
2023/05/24 01:59:54;;;;;;;12.15;3.08;;;;;;;;;;7371235;19;20501;-73
2023/05/24 02:02:19;;;;;;;12.00;3.33;;;;;;;;;;7371539;19;20070;-73
2023/05/24 02:04:45;;;;;;;12.48;3.40;;;;;;;;;;7371446;19;20018;-73
2023/05/24 02:07:10;;;;;;;12.02;3.97;;;;;;;;;;7391502;19;20034;-73
2023/05/24 02:09:35;;;;;;;8.80;2.90;;;;;;;;;;7370463;19;20018;-73
2023/05/24 02:12:01;;;;;;;12.93;3.40;;;;;;;;;;7371060;19;20488;-73
2023/05/24 02:14:26;;;;;;;12.52;3.42;;;;;;;;;;7370982;19;20007;-73
2023/05/24 02:16:52;;;;;;;15.43;3.15;;;;;;;;;;7370295;19;20013;-73
2023/05/24 02:19:17;;;;;;;8.73;2.88;;;;;;;;;;7368954;19;20007;-72
2023/05/24 02:21:42;;;;;;;14.68;3.55;;;;;;;;;;7392716;19;20037;-73
2023/05/24 02:24:10;;;;;;;10.38;3.08;;;;;;;;;;7371829;19;20074;-73
2023/05/24 02:26:36;;;;;;;11.95;3.22;;;;;;;;;;7372494;19;20616;-73
2023/05/24 02:29:02;;;;;;;10.35;3.15;;;;;;;;;;7375584;19;20022;-73
2023/05/24 02:31:28;;;;;;;14.77;3.42;;;;;;;;;;7377895;19;20006;-73
2023/05/24 02:33:57;;;;;;;9.85;3.05;;;;;;;;;;7393787;19;20002;-73
2023/05/24 02:36:23;;;;;;;11.05;3.20;;;;;;;;;;7369222;19;20010;-73
2023/05/24 02:38:51;;;;;;;10.77;3.38;;;;;;;;;;7370169;19;20655;-72
2023/05/24 02:41:17;;;;;;;7.20;2.72;;;;;;;;;;7370228;19;20484;-72
2023/05/24 02:43:46;;;;;;;11.85;3.03;;;;;;;;;;7370609;19;20002;-73
2023/05/24 02:46:12;;;;;;;12.93;2.92;;;;;;;;;;7381089;19;20021;-73
2023/05/24 02:48:38;;;;;;;8.60;2.95;;;;;;;;;;7390804;19;20016;-73
2023/05/24 02:51:03;;;;;;;9.68;3.10;;;;;;;;;;7369455;19;20014;-73
2023/05/24 02:53:32;;;;;;;17.45;3.28;;;;;;;;;;7370803;19;20006;-72
2023/05/24 02:55:58;;;;;;;8.15;3.15;;;;;;;;;;7369165;19;20002;-72
2023/05/24 02:58:23;;;;;;;11.65;3.30;;;;;;;;;;7367095;19;20020;-72
2023/05/24 03:00:49;;;;;;;10.07;3.70;;;;;;;;;;7391355;19;20003;-72
2023/05/24 03:03:15;;;;;;;12.77;3.42;;;;;;;;;;7368724;19;20002;-72
2023/05/24 03:05:40;;;;;;;8.13;2.90;;;;;;;;;;7370320;19;20454;-72
2023/05/24 03:08:06;;;;;;;11.90;3.25;;;;;;;;;;7367478;19;20031;-72
2023/05/24 03:10:32;;;;;;;15.27;3.67;;;;;;;;;;7369302;19;19995;-73
2023/05/24 03:12:57;;;;;;;12.73;2.80;;;;;;;;;;7390502;19;20343;-72
2023/05/24 03:15:23;;;;;;;16.80;3.50;;;;;;;;;;7368532;19;20023;-72
2023/05/24 03:17:48;;;;;;;15.38;4.32;;;;;;;;;;7371520;19;20015;-72
2023/05/24 03:20:14;;;;;;;12.38;3.40;;;;;;;;;;7381382;19;20603;-72
2023/05/24 03:22:40;;;;;;;8.63;2.85;;;;;;;;;;7383808;19;20017;-72
2023/05/24 03:25:07;;;;;;;10.40;2.80;;;;;;;;;;7406289;19;20006;-72
2023/05/24 03:27:33;;;;;;;12.98;3.47;;;;;;;;;;7381333;19;20010;-72
2023/05/24 03:29:58;;;;;;;7.75;2.78;;;;;;;;;;7383194;19;20013;-72
2023/05/24 03:32:23;;;;;;;12.45;3.55;;;;;;;;;;7383552;19;20014;-73
2023/05/24 03:34:48;;;;;;;8.77;3.10;;;;;;;;;;7382299;19;20023;-72
2023/05/24 03:37:14;;;;;;;10.23;3.10;;;;;;;;;;7379176;19;19999;-72
2023/05/24 03:39:39;;;;;;;7.32;2.80;;;;;;;;;;7399462;19;20035;-72
2023/05/24 03:42:05;;;;;;;14.43;2.92;;;;;;;;;;7377403;19;20014;-72
2023/05/24 03:44:30;;;;;;;11.07;3.33;;;;;;;;;;7377861;19;20517;-72
2023/05/24 03:46:55;;;;;;;8.77;2.63;;;;;;;;;;7377220;19;20002;-73
2023/05/24 03:49:20;;;;;;;13.43;3.08;;;;;;;;;;7376174;19;20011;-72
2023/05/24 03:51:46;;;;;;;9.48;2.97;;;;;;;;;;7400280;19;20041;-72
2023/05/24 03:54:11;;;;;;;11.80;2.92;;;;;;;;;;7375964;19;20010;-72
2023/05/24 03:56:37;;;;;;;12.88;2.80;;;;;;;;;;7376107;19;20606;-72
2023/05/24 03:59:02;;;;;;;14.30;3.47;;;;;;;;;;7375912;19;20013;-72
2023/05/24 04:01:30;;;;;;;14.30;3.20;;;;;;;;;;7377225;19;20009;-71
2023/05/24 04:03:56;;;;;;;18.80;2.88;;;;;;;;;;7398339;19;20002;-71
2023/05/24 04:06:27;;;;;;;11.85;2.85;;;;;;;;;;7375568;19;20030;-72
2023/05/24 04:08:53;;;;;;;;;;;;;;;;;;7377721;19;20006;-72
2023/05/24 04:11:19;;;;;;;8.68;2.42;;;;;;;;;;7383288;19;19926;-72
2023/05/24 04:13:44;;;;;;;8.82;2.85;;;;;;;;;;7376255;19;20031;-71
2023/05/24 04:16:10;;;;;;;14.80;3.40;;;;;;;;;;7395919;19;20422;-71
2023/05/24 04:18:35;;;;;;;11.40;3.28;;;;;;;;;;7374316;19;20355;-73
2023/05/24 04:21:00;;;;;;;8.02;2.58;;;;;;;;;;7375444;19;20012;-73
2023/05/24 04:23:25;;;;;;;9.52;2.72;;;;;;;;;;7375791;19;20006;-72
2023/05/24 04:25:51;;;;;;;10.55;2.58;;;;;;;;;;7375832;19;20011;-73
2023/05/24 04:28:16;;;;;;;15.05;2.78;;;;;;;;;;7371699;19;20026;-73
2023/05/24 04:30:44;;;;;;;12.45;3.03;;;;;;;;;;7396172;19;20095;-73
2023/05/24 04:33:10;;;;;;;13.45;3.53;;;;;;;;;;7374679;19;20022;-73
2023/05/24 04:35:35;;;;;;;10.38;2.80;;;;;;;;;;7375930;19;20007;-72
2023/05/24 04:38:01;;;;;;;10.13;2.88;;;;;;;;;;7374170;19;20408;-72
2023/05/24 04:40:29;;;;;;;15.70;2.75;;;;;;;;;;7374005;19;20036;-78
2023/05/24 04:42:55;;;;;;;6.97;2.47;;;;;;;;;;7397565;19;20558;-73
2023/05/24 04:45:20;;;;;;;10.05;2.50;;;;;;;;;;7375541;19;20575;-73
2023/05/24 04:47:48;;;;;;;9.88;2.78;;;;;;;;;;7374901;19;20014;-72
2023/05/24 04:50:14;;;;;;;8.32;2.35;;;;;;;;;;7378473;19;20056;-72
2023/05/24 04:52:39;;;;;;;15.68;3.50;;;;;;;;;;7377558;19;20010;-74
2023/05/24 04:55:05;;;;;;;11.27;3.08;;;;;;;;;;7395775;19;20006;-72
2023/05/24 04:57:30;;;;;;;11.55;2.90;;;;;;;;;;7370519;19;20006;-72
2023/05/24 04:59:56;;;;;;;12.00;2.70;;;;;;;;;;7370869;19;20006;-72
2023/05/24 05:02:21;;;;;;;14.35;3.10;;;;;;;;;;7371221;19;20085;-73
2023/05/24 05:04:47;;;;;;;8.02;2.67;;;;;;;;;;7368262;19;20015;-72
2023/05/24 05:07:12;;;;;;;13.50;3.08;;;;;;;;;;7373847;19;20007;-72
2023/05/24 05:09:37;;;;;;;10.95;3.00;;;;;;;;;;7387546;19;20627;-72
2023/05/24 05:12:02;;;;;;;14.70;2.95;;;;;;;;;;7370999;19;20055;-73
2023/05/24 05:14:28;;;;;;;12.05;2.65;;;;;;;;;;7373811;19;20007;-72
2023/05/24 05:16:53;;;;;;;12.20;2.97;;;;;;;;;;7380447;19;20024;-73
2023/05/24 05:19:19;;;;;;;8.68;2.53;;;;;;;;;;7377103;19;20042;-72
2023/05/24 05:21:44;;;;;;;10.68;2.53;;;;;;;;;;7388655;19;20054;-72
2023/05/24 05:24:10;;;;;;;12.18;2.53;;;;;;;;;;7370063;19;20006;-73
2023/05/24 05:26:35;;;;;;;6.22;2.60;;;;;;;;;;7371187;19;20007;-73
2023/05/24 05:29:00;;;;;;;12.35;2.67;;;;;;;;;;7368451;19;20023;-72
2023/05/24 05:31:26;;;;;;;9.48;2.70;;;;;;;;;;7371052;19;20003;-73
2023/05/24 05:33:51;;;;;;;8.40;2.63;;;;;;;;;;7394213;19;19999;-71
2023/05/24 05:36:17;;;;;;;13.43;2.70;;;;;;;;;;7371062;19;20390;-73
2023/05/24 05:38:42;;;;;;;6.43;2.25;;;;;;;;;;7371845;19;20040;-73
2023/05/24 05:41:08;;;;;;;11.15;2.45;;;;;;;;;;7370686;19;20453;-73
2023/05/24 05:43:34;;;;;;;15.43;3.03;;;;;;;;;;7372465;19;20027;-73
2023/05/24 05:46:00;;;;;;;12.52;2.78;;;;;;;;;;7394135;19;20015;-73
2023/05/24 05:48:25;;;;;;;7.97;2.63;;;;;;;;;;7370125;19;20003;-74
2023/05/24 05:50:51;;;;;;;12.45;2.80;;;;;;;;;;7382880;19;20017;-73
2023/05/24 05:53:16;;;;;;;12.48;2.72;;;;;;;;;;7376443;19;20002;-72
2023/05/24 05:55:42;;;;;;;10.70;2.75;;;;;;;;;;7372840;19;20002;-72
2023/05/24 05:58:07;;;;;;;13.18;2.50;;;;;;;;;;7395153;19;20027;-72
2023/05/24 06:00:32;;;;;;;15.55;2.78;;;;;;;;;;7372495;19;20011;-73
2023/05/24 06:02:58;;;;;;;12.38;2.78;;;;;;;;;;7370654;19;20003;-72
2023/05/24 06:05:23;;;;;;;12.73;2.25;;;;;;;;;;7371814;19;20674;-73
2023/05/24 06:07:48;;;;;;;8.93;2.40;;;;;;;;;;7368767;19;20019;-73
2023/05/24 06:10:14;;;;;;;5.82;2.28;;;;;;;;;;7371315;19;20013;-73
2023/05/24 06:12:39;;;;;;;16.42;3.80;;;;;;;;;;7393989;19;20019;-72
2023/05/24 06:15:06;;;;;;;8.40;3.00;;;;;;;;;;7369656;19;20003;-73
2023/05/24 06:17:33;;;;;;;6.13;2.10;;;;;;;;;;7372146;19;20060;-73
2023/05/24 06:19:59;;;;;;;8.23;2.72;;;;;;;;;;7373128;19;20011;-73
2023/05/24 06:22:26;;;;;;;10.07;2.63;;;;;;;;;;7381874;19;20005;-74
2023/05/24 06:24:52;;;;;;;9.35;2.20;;;;;;;;;;7406239;19;19995;-73
2023/05/24 06:27:17;;;;;;;8.43;2.58;;;;;;;;;;7382068;19;20010;-73
2023/05/24 06:29:42;;;;;;;9.65;2.08;;;;;;;;;;7383968;19;20027;-72
2023/05/24 06:32:08;;;;;;;6.82;2.22;;;;;;;;;;7369108;19;20608;-72
2023/05/24 06:34:33;;;;;;;12.68;3.42;;;;;;;;;;7371545;19;20006;-73
2023/05/24 06:36:58;;;;;;;6.38;2.10;;;;;;;;;;7390943;19;20002;-72
2023/05/24 06:39:24;;;;;;;6.95;2.10;;;;;;;;;;7368257;19;20471;-73
2023/05/24 06:41:50;;;;;;;14.95;3.03;;;;;;;;;;7369271;19;20113;-74
2023/05/24 06:44:16;;;;;;;5.05;1.58;;;;;;;;;;7369554;19;20599;-73
2023/05/24 06:46:41;;;;;;;14.68;2.50;;;;;;;;;;7368585;19;20346;-73
2023/05/24 06:49:07;;;;;;;10.45;2.50;;;;;;;;;;7389747;19;20024;-73
2023/05/24 06:51:33;;;;;;;11.13;2.60;;;;;;;;;;7367983;19;20039;-73
2023/05/24 06:53:58;;;;;;;12.88;2.53;;;;;;;;;;7367143;19;20489;-72
2023/05/24 06:56:24;;;;;;;9.15;2.30;;;;;;;;;;7369441;19;20094;-72
2023/05/24 06:58:49;;;;;;;7.70;1.98;;;;;;;;;;7367993;19;20011;-73
2023/05/24 07:01:15;;;;;;;3.95;1.60;;;;;;;;;;7367680;19;20014;-72
2023/05/24 07:03:41;;;;;;;9.02;2.42;;;;;;;;;;7390324;19;20019;-72
2023/05/24 07:06:08;;;;;;;9.13;2.42;;;;;;;;;;7367133;19;20041;-72
2023/05/24 07:08:34;;;;;;;12.13;2.90;;;;;;;;;;7367868;19;20709;-72
2023/05/24 07:10:59;;;;;;;13.27;2.92;;;;;;;;;;7368725;19;20014;-72
2023/05/24 07:13:25;;;;;;;9.45;2.28;;;;;;;;;;7369191;19;20335;-72
2023/05/24 07:15:50;;;;;;;7.85;2.70;;;;;;;;;;7389629;19;20002;-72
2023/05/24 07:18:15;;;;;;;9.48;2.50;;;;;;;;;;7367058;19;20468;-72
2023/05/24 07:20:41;;;;;;;14.65;2.90;;;;;;;;;;7368227;19;20059;-73
2023/05/24 07:23:06;;;;;;;10.00;2.65;;;;;;;;;;7366975;19;20479;-72
2023/05/24 07:25:32;;;;;;;12.32;2.90;;;;;;;;;;7368618;19;20003;-72
2023/05/24 07:28:00;;;;;;;14.55;2.90;;;;;;;;;;7387660;19;20019;-73
2023/05/24 07:30:26;;;;;;;12.50;2.35;;;;;;;;;;7368299;19;20026;-72
2023/05/24 07:32:51;;;;;;;6.05;2.28;;;;;;;;;;7368975;19;20007;-72
2023/05/24 07:35:16;;;;;;;7.00;2.13;;;;;;;;;;7373764;19;20014;-73
2023/05/24 07:37:42;;;;;;;10.05;2.58;;;;;;;;;;7370174;19;20031;-73
2023/05/24 07:40:11;;;;;;;11.73;2.88;;;;;;;;;;7390172;19;20379;-73
2023/05/24 07:42:40;;;;;;;15.57;3.10;;;;;;;;;;7367759;19;20007;-73
2023/05/24 07:45:07;;;;;;;10.27;2.55;;;;;;;;;;7367883;19;20011;-73
2023/05/24 07:47:33;;;;;;;9.77;2.63;;;;;;;;;;7366980;19;20010;-73
2023/05/24 07:49:58;;;;;;;10.43;2.47;;;;;;;;;;7367619;19;20089;-73
2023/05/24 07:52:25;;;;;;;15.25;2.88;;;;;;;;;;7368228;19;20023;-73
2023/05/24 07:54:51;;;;;;;9.02;2.40;;;;;;;;;;7388944;19;20391;-73
2023/05/24 07:57:17;;;;;;;11.50;3.25;;;;;;;;;;7364899;19;20017;-73
2023/05/24 07:59:43;;;;;;;11.55;2.88;;;;;;;;;;7367834;19;20034;-72
2023/05/24 08:02:10;;;;;;;8.20;2.35;;;;;;;;;;7369027;19;20066;-72
2023/05/24 08:04:36;;;;;;;10.00;2.33;;;;;;;;;;7374778;19;20091;-73
2023/05/24 08:07:02;;;;;;;8.68;2.13;;;;;;;;;;7412010;19;20143;-73
2023/05/24 08:09:34;;;;;;;13.13;3.42;;;;;;;;;;7391943;19;20051;-73
2023/05/24 08:12:00;;;;;;;12.93;2.70;;;;;;;;;;7395142;19;20006;-73
2023/05/24 08:14:26;;;;;;;11.88;2.70;;;;;;;;;;7379829;19;20006;-72
2023/05/24 08:16:51;;;;;;;14.80;2.80;;;;;;;;;;7374676;19;20013;-72
2023/05/24 08:19:16;;;;;;;17.52;3.30;;;;;;;;;;7373271;19;20353;-73
2023/05/24 08:21:42;;;;;;;8.02;2.53;;;;;;;;;;7395755;19;20002;-73
2023/05/24 08:24:07;;;;;;;7.65;2.25;;;;;;;;;;7374027;19;20375;-73
2023/05/24 08:26:33;;;;;;;7.45;2.30;;;;;;;;;;7373176;19;20369;-73
2023/05/24 08:28:58;;;;;;;14.57;2.53;;;;;;;;;;7372363;19;20012;-72
2023/05/24 08:31:23;;;;;;;8.25;2.38;;;;;;;;;;7373931;19;20019;-72
2023/05/24 08:33:49;;;;;;;10.35;2.35;;;;;;;;;;7394973;19;20043;-73
2023/05/24 08:36:16;;;;;;;11.85;2.58;;;;;;;;;;7372661;19;20022;-73
2023/05/24 08:38:42;;;;;;;9.02;2.53;;;;;;;;;;7372879;19;20011;-72
2023/05/24 08:41:10;;;;;;;10.43;2.55;;;;;;;;;;7373292;19;20334;-72
2023/05/24 08:43:36;;;;;;;12.60;2.40;;;;;;;;;;7373722;19;20035;-73
2023/05/24 08:46:02;;;;;;;11.95;2.60;;;;;;;;;;7394597;19;20030;-74
2023/05/24 08:48:28;;;;;;;7.20;2.50;;;;;;;;;;7370295;19;20425;-73
2023/05/24 08:50:53;;;;;;;14.00;2.63;;;;;;;;;;7373043;19;20013;-72
2023/05/24 08:53:20;;;;;;;8.80;2.33;;;;;;;;;;7372932;19;20070;-73
2023/05/24 08:55:48;;;;;;;10.57;2.38;;;;;;;;;;7372132;19;20060;-72
2023/05/24 08:58:15;;;;;;;11.48;2.78;;;;;;;;;;7367790;19;20483;-72
2023/05/24 09:00:40;;;;;;;10.18;2.67;;;;;;;;;;7392388;19;20005;-73
2023/05/24 09:03:06;;;;;;;13.80;2.83;;;;;;;;;;7371834;19;20018;-72
2023/05/24 09:05:32;;;;;;;12.65;3.00;;;;;;;;;;7372333;19;20102;-72
2023/05/24 09:07:59;;;;;;;14.60;2.65;;;;;;;;;;7369294;19;20039;-73
2023/05/24 09:10:27;;;;;;;19.25;2.58;;;;;;;;;;7371715;19;20015;-72
2023/05/24 09:12:57;;;;;;;11.45;3.05;;;;;;;;;;7394178;19;20031;-72
2023/05/24 09:15:23;;;;;;;12.50;2.77;;;;;;;;;;7368802;19;20002;-72
2023/05/24 09:17:48;;;;;;;16.27;2.50;;;;;;;;;;7369685;19;20022;-72
2023/05/24 09:20:14;;;;;;;23.90;3.65;;;;;;;;;;7371740;19;20564;-72
2023/05/24 09:22:43;;;;;;;9.63;2.70;;;;;;;;;;7371979;19;20009;-72
2023/05/24 09:25:11;;;;;;;15.73;2.50;;;;;;;;;;7392934;19;19994;-73
2023/05/24 09:27:37;;;;;;;10.25;2.30;;;;;;;;;;7369200;19;20011;-73
2023/05/24 09:30:07;;;;;;;13.88;3.80;;;;;;;;;;7371318;19;20058;-72
2023/05/24 09:32:32;;;;;;;15.60;2.92;;;;;;;;;;7371423;19;20002;-72
2023/05/24 09:34:58;;;;;;;12.98;2.65;;;;;;;;;;7371161;19;20021;-73
2023/05/24 09:37:28;;;;;;;9.85;2.50;;;;;;;;;;7370770;19;20006;-73
2023/05/24 09:39:54;;;;;;;9.90;2.78;;;;;;;;;;7393817;19;20003;-73
2023/05/24 09:42:29;;;;;;;10.85;2.65;;;;;;;;;;7370883;19;20033;-72
2023/05/24 09:45:03;;;;;;;9.00;2.20;;;;;;;;;;7370378;19;20009;-72
2023/05/24 09:47:30;;;;;;;10.15;2.42;;;;;;;;;;7369225;19;20009;-72
2023/05/24 09:49:55;;;;;;;9.18;2.45;;;;;;;;;;7370588;19;20014;-72
2023/05/24 09:52:21;;;;;;;8.18;2.50;;;;;;;;;;7371211;19;20018;-72
2023/05/24 09:54:47;;;;;;;10.30;2.50;;;;;;;;;;7392982;19;20782;-73
2023/05/24 09:57:15;;;;;;;10.40;2.60;;;;;;;;;;7369464;19;20017;-73
2023/05/24 09:59:41;;;;;;;7.25;2.47;;;;;;;;;;7369023;19;20089;-72
2023/05/24 10:02:10;;;;;;;8.43;2.75;;;;;;;;;;7367353;19;20002;-73
2023/05/24 10:04:37;;;;;;;12.38;2.53;;;;;;;;;;7367349;19;20015;-73
2023/05/24 10:07:03;;;;;;;9.57;2.38;;;;;;;;;;7388175;19;20002;-73
2023/05/24 10:09:32;;;;;;;8.93;2.47;;;;;;;;;;7365671;19;20066;-72
2023/05/24 10:12:03;;;;;;;14.60;2.78;;;;;;;;;;7367176;19;20002;-73
2023/05/24 10:14:34;;;;;;;;;;;;;;;;;;7368502;19;20013;-73
2023/05/24 10:17:00;;;;;;;8.07;2.17;;;;;;;;;;7369291;19;19922;-72
2023/05/24 10:19:26;;;;;;;9.43;2.58;;;;;;;;;;7369620;19;20010;-73
2023/05/24 10:21:52;;;;;;;9.38;2.83;;;;;;;;;;7391491;19;20089;-73
2023/05/24 10:24:23;;;;;;;12.85;2.67;;;;;;;;;;7369108;19;20421;-72
2023/05/24 10:26:50;;;;;;;13.35;2.75;;;;;;;;;;7367354;19;20031;-72
2023/05/24 10:29:35;;;;;;;8.73;2.72;;;;;;;;;;7368345;19;20071;-72
2023/05/24 10:32:03;;;;;;;13.57;3.00;;;;;;;;;;7369675;19;20006;-72
2023/05/24 10:34:29;;;;;;;13.52;2.83;;;;;;;;;;7369314;19;20006;-72
2023/05/24 10:36:56;;;;;;;10.95;2.60;;;;;;;;;;7386769;19;20039;-73
2023/05/24 10:39:23;;;;;;;16.58;2.80;;;;;;;;;;7382920;19;20075;-72
2023/05/24 10:41:49;;;;;;;15.02;2.97;;;;;;;;;;7376711;19;20010;-77
2023/05/24 10:44:18;;;;;;;8.88;2.55;;;;;;;;;;7381551;19;20038;-77
2023/05/24 10:47:11;;;;;;;10.23;3.30;;;;;;;;;;7391590;19;20085;-77
2023/05/24 10:49:46;;;;;;;8.43;2.90;;;;;;;;;;7388402;19;20050;-77
2023/05/24 10:52:12;;;;;;;17.65;2.88;;;;;;;;;;7386768;19;20536;-76
2023/05/24 10:54:37;;;;;;;15.10;2.78;;;;;;;;;;7386786;19;20298;-77
2023/05/24 10:57:04;;;;;;;8.23;2.88;;;;;;;;;;7367454;19;20006;-77
2023/05/24 10:59:38;;;;;;;9.75;2.60;;;;;;;;;;7368306;19;20063;-77
2023/05/24 11:02:08;;;;;;;11.43;2.83;;;;;;;;;;7368777;19;20033;-77
2023/05/24 11:04:46;;;;;;;5.97;2.90;;;;;;;;;;7370693;19;20054;-77
2023/05/24 11:07:14;;;;;;;8.20;2.38;;;;;;;;;;7381347;19;20017;-77
2023/05/24 11:09:45;;;;;;;9.45;2.60;;;;;;;;;;7390653;19;20009;-77
2023/05/24 11:12:19;;;;;;;12.63;3.72;;;;;;;;;;7370512;19;20019;-77
2023/05/24 11:14:50;;;;;;;7.80;2.20;;;;;;;;;;7369544;19;20003;-77
2023/05/24 11:17:15;;;;;;;10.52;2.90;;;;;;;;;;7369393;19;20032;-77
2023/05/24 11:19:52;;;;;;;9.25;2.63;;;;;;;;;;7371539;19;20473;-77
2023/05/24 11:22:20;;;;;;;10.85;4.15;;;;;;;;;;7371237;19;20426;-77
2023/05/24 11:24:46;;;;;;;12.15;3.03;;;;;;;;;;7391577;19;20002;-76
2023/05/24 11:27:13;;;;;;;12.68;2.67;;;;;;;;;;7370165;19;20013;-77
2023/05/24 11:29:43;;;;;;;8.80;2.95;;;;;;;;;;7370503;19;20035;-77
2023/05/24 11:32:09;;;;;;;;;;;;;;;;;;7369441;19;20014;-76
2023/05/24 11:34:35;;;;;;;9.63;2.72;;;;;;;;;;7372132;19;19923;-77
2023/05/24 11:37:04;;;;;;;10.90;2.55;;;;;;;;;;7392787;19;20010;-78
2023/05/24 11:39:36;;;;;;;12.75;3.25;;;;;;;;;;7373684;19;20469;-78
2023/05/24 11:42:06;;;;;;;11.52;3.47;;;;;;;;;;7375482;19;20479;-78
2023/05/24 11:44:32;;;;;;;8.57;2.92;;;;;;;;;;7379073;19;20416;-78
2023/05/24 11:46:59;;;;;;;7.60;2.40;;;;;;;;;;7377448;19;20044;-76
2023/05/24 11:49:24;;;;;;;13.13;2.78;;;;;;;;;;7376097;19;20007;-77
2023/05/24 11:51:53;;;;;;;10.15;2.63;;;;;;;;;;7400430;19;20449;-77
2023/05/24 11:54:19;;;;;;;12.10;3.25;;;;;;;;;;7375688;19;20010;-77
2023/05/24 11:56:46;;;;;;;6.95;2.33;;;;;;;;;;7381898;19;20039;-77
2023/05/24 11:59:16;;;;;;;10.25;2.88;;;;;;;;;;7376816;19;20011;-70
2023/05/24 12:01:42;;;;;;;8.85;2.92;;;;;;;;;;7376334;19;20554;-70
2023/05/24 12:04:08;;;;;;;15.13;2.50;;;;;;;;;;7397904;19;20049;-67
2023/05/24 12:06:37;;;;;;;7.53;2.17;;;;;;;;;;7374737;19;20014;-66
2023/05/24 12:09:09;;;;;;;9.93;2.72;;;;;;;;;;7368197;19;20010;-66
2023/05/24 12:11:42;;;;;;;7.03;2.50;;;;;;;;;;7375371;19;20003;-66
2023/05/24 12:14:11;;;;;;;10.95;3.15;;;;;;;;;;7373883;19;20023;-65
2023/05/24 12:16:36;;;;;;;12.57;3.42;;;;;;;;;;7374323;19;20027;-65
2023/05/24 12:19:02;;;;;;;6.22;1.92;;;;;;;;;;7394883;19;19998;-67
2023/05/24 12:21:32;;;;;;;11.60;3.10;;;;;;;;;;7369378;19;20017;-66
2023/05/24 12:24:06;;;;;;;11.07;3.08;;;;;;;;;;7372357;19;20010;-67
2023/05/24 12:26:39;;;;;;;8.73;2.80;;;;;;;;;;7373219;19;20015;-66
2023/05/24 12:29:05;;;;;;;7.82;2.35;;;;;;;;;;7370632;19;20002;-66
2023/05/24 12:31:31;;;;;;;8.18;2.65;;;;;;;;;;7372880;19;20407;-65
2023/05/24 12:33:56;;;;;;;8.70;2.47;;;;;;;;;;7394285;19;20002;-66
2023/05/24 12:36:22;;;;;;;15.20;2.70;;;;;;;;;;7372008;19;20015;-66
2023/05/24 12:38:47;;;;;;;8.38;2.60;;;;;;;;;;7370083;19;20007;-66
2023/05/24 12:41:13;;;;;;;9.45;3.10;;;;;;;;;;7373400;19;20043;-66
2023/05/24 12:43:39;;;;;;;13.13;3.65;;;;;;;;;;7369782;19;20007;-66
2023/05/24 12:46:04;;;;;;;15.93;5.65;;;;;;;;;;7395194;19;20475;-66
2023/05/24 12:48:30;;;;;;;10.02;3.00;;;;;;;;;;7371471;19;19998;-66
2023/05/24 12:50:55;;;;;;;9.63;2.80;;;;;;;;;;7370530;19;20003;-66
2023/05/24 12:53:23;;;;;;;10.70;2.90;;;;;;;;;;7376276;19;20017;-66
2023/05/24 12:55:50;;;;;;;7.78;2.42;;;;;;;;;;7379787;19;20002;-66
2023/05/24 12:58:16;;;;;;;8.95;2.45;;;;;;;;;;7374291;19;20075;-65
2023/05/24 13:00:43;;;;;;;9.80;2.78;;;;;;;;;;7394567;19;19998;-66
2023/05/24 13:03:08;;;;;;;8.48;2.97;;;;;;;;;;7371324;19;20002;-66
2023/05/24 13:05:34;;;;;;;10.98;2.95;;;;;;;;;;7371028;19;20102;-66
2023/05/24 13:07:59;;;;;;;12.32;3.28;;;;;;;;;;7369967;19;20006;-67
2023/05/24 13:10:26;;;;;;;16.77;3.65;;;;;;;;;;7373019;19;19999;-67
2023/05/24 13:12:51;;;;;;;12.93;3.13;;;;;;;;;;7391683;19;20009;-67
2023/05/24 13:15:18;;;;;;;12.73;3.58;;;;;;;;;;7363155;19;20010;-67
2023/05/24 13:17:44;;;;;;;16.55;3.50;;;;;;;;;;7370943;19;20021;-67
2023/05/24 13:20:10;;;;;;;14.00;2.75;;;;;;;;;;7371530;19;20010;-66
2023/05/24 13:22:37;;;;;;;7.55;2.47;;;;;;;;;;7369790;19;20021;-67
2023/05/24 13:25:07;;;;;;;8.60;2.92;;;;;;;;;;7393742;19;20026;-67
2023/05/24 13:27:33;;;;;;;9.63;3.13;;;;;;;;;;7369096;19;20040;-66
2023/05/24 13:29:58;;;;;;;10.48;2.75;;;;;;;;;;7375899;19;20468;-66
2023/05/24 13:32:24;;;;;;;9.70;2.90;;;;;;;;;;7377124;19;20018;-66
2023/05/24 13:34:49;;;;;;;10.80;2.58;;;;;;;;;;7369045;19;20010;-66
2023/05/24 13:37:15;;;;;;;7.88;2.90;;;;;;;;;;7370141;19;20008;-66
2023/05/24 13:39:41;;;;;;;6.60;1.98;;;;;;;;;;7392033;19;20041;-67
2023/05/24 13:42:07;;;;;;;9.40;3.17;;;;;;;;;;7370305;19;20370;-67
2023/05/24 13:44:33;;;;;;;13.55;3.63;;;;;;;;;;7370744;19;20063;-66
2023/05/24 13:46:58;;;;;;;21.27;3.80;;;;;;;;;;7370080;19;20011;-67
2023/05/24 13:49:24;;;;;;;8.77;2.55;;;;;;;;;;7370338;19;20349;-67
2023/05/24 13:51:49;;;;;;;13.75;3.30;;;;;;;;;;7393146;19;20018;-67
2023/05/24 13:54:15;;;;;;;9.13;3.05;;;;;;;;;;7369879;19;20436;-66
2023/05/24 13:56:43;;;;;;;13.52;3.20;;;;;;;;;;7370158;19;20017;-67
2023/05/24 13:59:08;;;;;;;11.90;3.65;;;;;;;;;;7370341;19;20011;-66
2023/05/24 14:01:36;;;;;;;19.25;4.03;;;;;;;;;;7369369;19;20520;-67
2023/05/24 14:04:03;;;;;;;11.77;3.83;;;;;;;;;;7392098;19;20583;-67
2023/05/24 14:06:29;;;;;;;15.07;3.13;;;;;;;;;;7369408;19;20015;-67
2023/05/24 14:08:55;;;;;;;16.27;3.70;;;;;;;;;;7369267;19;20036;-67
2023/05/24 14:11:21;;;;;;;17.45;4.13;;;;;;;;;;7370426;19;20006;-67
2023/05/24 14:13:47;;;;;;;18.65;3.20;;;;;;;;;;7369891;19;20018;-67
2023/05/24 14:16:12;;;;;;;14.63;3.55;;;;;;;;;;7375700;19;20006;-67
2023/05/24 14:18:37;;;;;;;15.15;3.22;;;;;;;;;;7387623;19;20009;-67
2023/05/24 14:21:03;;;;;;;14.05;3.30;;;;;;;;;;7369835;19;20017;-67
2023/05/24 14:23:30;;;;;;;12.55;3.45;;;;;;;;;;7368976;19;20043;-66
2023/05/24 14:25:56;;;;;;;9.60;3.28;;;;;;;;;;7368554;19;20038;-67
2023/05/24 14:28:21;;;;;;;10.90;3.88;;;;;;;;;;7369257;19;20002;-69
2023/05/24 14:30:47;;;;;;;15.40;3.72;;;;;;;;;;7387449;19;20031;-69
2023/05/24 14:33:12;;;;;;;10.50;3.13;;;;;;;;;;7369239;19;20445;-70